createdAt,value
2019-03-25T00:01:47.081Z,59.40
2019-03-25T00:04:14.961Z,59.80
2019-03-25T00:06:42.819Z,60.30
2019-03-25T00:09:10.774Z,60.30
2019-03-25T00:11:38.577Z,61.10
2019-03-25T00:14:06.419Z,61.30
2019-03-25T00:16:34.331Z,60.70
2019-03-25T00:19:02.263Z,60.90
2019-03-25T00:21:30.128Z,60.70
2019-03-25T00:23:58.125Z,60.70
2019-03-25T00:26:25.957Z,61.10
2019-03-25T00:28:53.859Z,61.10
2019-03-25T00:31:21.684Z,60.80
2019-03-25T00:33:49.644Z,60.10
2019-03-25T00:36:17.592Z,59.70
2019-03-25T00:38:45.443Z,59.30
2019-03-25T00:41:13.360Z,59.50
2019-03-25T00:43:41.330Z,59.80
2019-03-25T00:46:09.155Z,59.90
2019-03-25T00:48:37.043Z,60.80
2019-03-25T00:51:04.956Z,63.10
2019-03-25T00:53:32.873Z,63.80
2019-03-25T00:56:00.684Z,64.80
2019-03-25T00:58:28.484Z,64.10
2019-03-25T01:00:56.502Z,63.90
2019-03-25T01:03:24.327Z,64.00
2019-03-25T01:05:52.280Z,62.60
2019-03-25T01:08:20.298Z,64.00
2019-03-25T01:10:48.194Z,63.00
2019-03-25T01:13:16.025Z,62.10
2019-03-25T01:15:43.892Z,63.40
2019-03-25T01:18:16.742Z,64.10
2019-03-25T01:20:41.472Z,65.20
2019-03-25T01:23:09.324Z,66.80
2019-03-25T01:25:37.337Z,67.10
2019-03-25T01:28:05.191Z,66.20
2019-03-25T01:30:33.116Z,64.80
2019-03-25T01:33:01.066Z,64.70
2019-03-25T01:35:28.900Z,64.60
2019-03-25T01:37:56.869Z,64.60
2019-03-25T01:40:24.793Z,64.40
2019-03-25T01:42:52.754Z,64.20
2019-03-25T01:45:20.779Z,63.70
2019-03-25T01:47:48.647Z,63.40
2019-03-25T01:50:16.527Z,63.30
2019-03-25T01:52:44.418Z,63.20
2019-03-25T01:55:13.750Z,64.10
2019-03-25T01:57:41.891Z,65.20
2019-03-25T02:00:10.472Z,65.50
2019-03-25T02:02:38.451Z,66.60
2019-03-25T02:05:06.402Z,66.80
2019-03-25T02:07:34.335Z,67.40
2019-03-25T02:10:02.311Z,66.60
2019-03-25T02:12:30.312Z,66.40
2019-03-25T02:14:58.153Z,65.90
2019-03-25T02:17:26.035Z,65.90
2019-03-25T02:19:54.009Z,66.00
2019-03-25T02:22:21.916Z,66.30
2019-03-25T02:24:49.874Z,66.80
2019-03-25T02:27:17.824Z,68.00
2019-03-25T02:29:45.695Z,67.20
2019-03-25T02:32:13.568Z,67.50
2019-03-25T02:34:41.480Z,67.80
2019-03-25T02:37:09.353Z,67.50
2019-03-25T02:39:37.290Z,68.40
2019-03-25T02:42:05.191Z,69.20
2019-03-25T02:44:33.148Z,70.00
2019-03-25T02:47:00.993Z,70.40
2019-03-25T02:49:28.850Z,70.80
2019-03-25T02:51:56.678Z,70.40
2019-03-25T02:54:24.669Z,69.90
2019-03-25T02:56:52.491Z,69.30
2019-03-25T02:59:20.397Z,69.10
2019-03-25T03:01:48.352Z,69.30
2019-03-25T03:04:16.305Z,68.30
2019-03-25T03:06:44.185Z,68.50
2019-03-25T03:09:12.142Z,67.70
2019-03-25T03:11:40.099Z,67.40
2019-03-25T03:14:08.062Z,68.50
2019-03-25T03:16:35.985Z,68.60
2019-03-25T03:19:03.867Z,68.20
2019-03-25T03:21:31.826Z,69.00
2019-03-25T03:23:59.786Z,68.30
2019-03-25T03:26:27.735Z,69.20
2019-03-25T03:28:55.633Z,69.80
2019-03-25T03:31:23.576Z,69.30
2019-03-25T03:33:51.488Z,69.60
2019-03-25T03:36:19.361Z,70.20
2019-03-25T03:38:48.289Z,70.10
2019-03-25T03:41:16.227Z,70.90
2019-03-25T03:43:44.143Z,72.60
2019-03-25T03:46:12.019Z,73.00
2019-03-25T03:48:40.049Z,75.30
2019-03-25T03:51:07.983Z,78.90
2019-03-25T03:53:36.231Z,78.90
2019-03-25T03:56:12.622Z,79.40
2019-03-25T03:58:34.442Z,79.50
2019-03-25T04:01:02.469Z,80.40
2019-03-25T04:03:30.509Z,81.60
2019-03-25T04:05:58.866Z,81.20
2019-03-25T04:08:26.773Z,81.00
2019-03-25T04:10:54.719Z,81.30
2019-03-25T04:13:22.684Z,80.80
2019-03-25T04:15:50.547Z,81.80
2019-03-25T04:18:18.532Z,81.30
2019-03-25T04:20:46.451Z,81.90
2019-03-25T04:23:14.299Z,82.00
2019-03-25T04:25:42.227Z,82.10
2019-03-25T04:28:10.250Z,81.80
2019-03-25T04:30:38.198Z,81.10
2019-03-25T04:33:06.231Z,81.70
2019-03-25T04:35:34.170Z,82.70
2019-03-25T04:38:02.025Z,84.80
2019-03-25T04:40:29.988Z,88.40
2019-03-25T04:42:58.705Z,90.10
2019-03-25T04:45:26.546Z,90.60
2019-03-25T04:47:54.485Z,90.40
2019-03-25T04:50:22.320Z,90.70
2019-03-25T04:52:50.176Z,91.20
2019-03-25T04:55:18.050Z,91.20
2019-03-25T04:57:45.988Z,91.20
2019-03-25T05:00:14.121Z,90.60
2019-03-25T05:02:41.920Z,90.40
2019-03-25T05:05:11.130Z,90.70
2019-03-25T05:07:39.066Z,89.80
2019-03-25T05:10:07.458Z,88.40
2019-03-25T05:12:35.444Z,88.40
2019-03-25T05:15:03.880Z,87.70
2019-03-25T05:17:31.870Z,88.10
2019-03-25T05:19:59.782Z,87.20
2019-03-25T05:22:27.733Z,87.20
2019-03-25T05:24:55.623Z,87.80
2019-03-25T05:27:23.436Z,87.30
2019-03-25T05:29:51.264Z,89.10
2019-03-25T05:32:19.122Z,88.10
2019-03-25T05:34:47.022Z,88.60
2019-03-25T05:37:15.025Z,89.60
2019-03-25T05:39:43.012Z,89.60
2019-03-25T05:42:10.956Z,88.90
2019-03-25T05:44:38.812Z,88.30
2019-03-25T05:47:06.756Z,88.30
2019-03-25T05:49:34.707Z,87.00
2019-03-25T05:52:02.761Z,87.30
2019-03-25T05:54:30.791Z,87.10
2019-03-25T05:57:02.659Z,86.60
2019-03-25T05:59:28.696Z,86.60
2019-03-25T06:01:56.554Z,87.30
2019-03-25T06:04:24.559Z,88.10
2019-03-25T06:06:52.489Z,88.50
2019-03-25T06:09:20.500Z,87.80
2019-03-25T06:11:48.425Z,88.10
2019-03-25T06:14:16.494Z,89.60
2019-03-25T06:16:44.483Z,89.20
2019-03-25T06:19:12.497Z,88.60
2019-03-25T06:21:40.472Z,87.70
2019-03-25T06:24:08.777Z,87.10
2019-03-25T06:26:36.888Z,88.00
2019-03-25T06:29:04.796Z,86.90
2019-03-25T06:31:33.879Z,87.00
2019-03-25T06:34:01.845Z,86.50
2019-03-25T06:36:29.670Z,87.40
2019-03-25T06:38:57.619Z,87.00
2019-03-25T06:41:25.704Z,86.00
2019-03-25T06:43:53.773Z,86.00
2019-03-25T06:46:22.358Z,87.10
2019-03-25T06:48:50.814Z,87.70
2019-03-25T06:51:19.055Z,86.70
2019-03-25T06:53:47.233Z,86.50
2019-03-25T06:56:15.303Z,86.30
2019-03-25T06:58:43.375Z,84.80
2019-03-25T07:01:11.501Z,84.40
2019-03-25T07:03:39.908Z,84.10
2019-03-25T07:06:08.053Z,86.30
2019-03-25T07:08:36.547Z,87.20
2019-03-25T07:11:04.994Z,89.00
2019-03-25T07:13:33.425Z,90.60
2019-03-25T07:16:01.619Z,91.20
2019-03-25T07:18:29.756Z,90.50
2019-03-25T07:20:57.853Z,90.30
2019-03-25T07:23:26.016Z,90.50
2019-03-25T07:25:54.106Z,90.00
2019-03-25T07:28:22.149Z,90.10
2019-03-25T07:30:50.302Z,89.40
2019-03-25T07:33:18.506Z,89.80
2019-03-25T07:35:46.699Z,89.20
2019-03-25T07:38:14.793Z,90.20
2019-03-25T07:40:42.939Z,90.00
2019-03-25T07:43:13.664Z,88.30
2019-03-25T07:45:41.757Z,86.90
2019-03-25T07:48:09.761Z,87.40
2019-03-25T07:50:37.926Z,87.60
2019-03-25T07:53:06.089Z,85.30
2019-03-25T07:55:34.132Z,85.60
2019-03-25T07:58:04.629Z,85.20
2019-03-25T08:00:32.783Z,85.00
2019-03-25T08:03:00.862Z,84.70
2019-03-25T08:05:29.003Z,83.30
2019-03-25T08:07:57.372Z,83.50
2019-03-25T08:10:35.043Z,84.20
2019-03-25T08:13:03.292Z,83.10
2019-03-25T08:15:33.886Z,82.70
2019-03-25T08:18:03.242Z,83.20
2019-03-25T08:20:31.370Z,85.10
2019-03-25T08:23:02.317Z,84.50
2019-03-25T08:25:30.514Z,85.70
2019-03-25T08:28:00.346Z,85.80
2019-03-25T08:30:28.463Z,85.20
2019-03-25T08:32:56.469Z,83.80
2019-03-25T08:35:24.637Z,84.60
2019-03-25T08:37:52.776Z,83.00
2019-03-25T08:40:20.926Z,83.70
2019-03-25T08:42:49.076Z,82.50
2019-03-25T08:45:17.544Z,81.50
2019-03-25T08:47:45.585Z,80.90
2019-03-25T08:50:13.835Z,80.00
2019-03-25T08:52:41.901Z,79.00
2019-03-25T08:55:10.269Z,78.50
2019-03-25T08:57:38.471Z,79.40
2019-03-25T09:00:06.820Z,77.10
2019-03-25T09:02:35.072Z,78.90
2019-03-25T09:05:03.205Z,81.20
2019-03-25T09:07:31.376Z,80.60
2019-03-25T09:09:59.427Z,80.70
2019-03-25T09:12:27.548Z,80.80
2019-03-25T09:14:55.611Z,81.10
2019-03-25T09:17:23.734Z,82.70
2019-03-25T09:19:51.886Z,83.40
2019-03-25T09:22:19.942Z,86.40
2019-03-25T09:24:49.267Z,87.70
2019-03-25T09:27:17.298Z,86.60
2019-03-25T09:29:45.363Z,87.90
2019-03-25T09:32:13.424Z,87.90
2019-03-25T09:34:41.534Z,87.10
2019-03-25T09:37:09.580Z,88.10
2019-03-25T09:39:37.743Z,87.40
2019-03-25T09:42:05.807Z,84.20
2019-03-25T09:44:33.902Z,85.70
2019-03-25T09:47:02.086Z,86.10
2019-03-25T09:49:30.189Z,85.40
2019-03-25T09:51:58.269Z,84.50
2019-03-25T09:54:26.398Z,84.00
2019-03-25T09:56:54.589Z,83.50
2019-03-25T09:59:22.664Z,82.20
2019-03-25T10:01:50.852Z,84.20
2019-03-25T10:04:20.159Z,84.70
2019-03-25T10:06:48.431Z,85.60
2019-03-25T10:09:16.620Z,87.40
2019-03-25T10:11:44.821Z,88.60
2019-03-25T10:14:12.967Z,89.40
2019-03-25T10:16:41.112Z,90.30
2019-03-25T10:19:10.391Z,90.30
2019-03-25T10:21:38.703Z,90.90
2019-03-25T10:24:06.879Z,91.00
2019-03-25T10:26:35.041Z,90.50
2019-03-25T10:29:03.215Z,90.90
2019-03-25T10:31:31.519Z,90.20
2019-03-25T10:33:59.641Z,90.90
2019-03-25T10:36:27.731Z,91.10
2019-03-25T10:38:55.894Z,90.60
2019-03-25T10:41:23.955Z,89.00
2019-03-25T10:43:52.075Z,88.00
2019-03-25T10:46:20.267Z,86.90
2019-03-25T10:48:48.437Z,86.40
2019-03-25T10:51:16.572Z,90.00
2019-03-25T10:53:45.827Z,90.30
2019-03-25T10:56:13.912Z,90.30
2019-03-25T10:58:42.140Z,90.10
2019-03-25T11:01:10.378Z,88.80
2019-03-25T11:03:38.510Z,86.60
2019-03-25T11:06:06.745Z,88.90
2019-03-25T11:08:34.911Z,87.90
2019-03-25T11:11:03.589Z,87.00
2019-03-25T11:13:31.806Z,87.30
2019-03-25T11:15:59.926Z,86.80
2019-03-25T11:18:28.028Z,87.50
2019-03-25T11:20:56.134Z,90.30
2019-03-25T11:23:24.269Z,90.30
2019-03-25T11:25:52.283Z,90.80
2019-03-25T11:28:20.439Z,91.60
2019-03-25T11:30:58.660Z,92.00
2019-03-25T11:33:26.779Z,92.80
2019-03-25T11:35:54.949Z,92.50
2019-03-25T11:38:23.032Z,92.30
2019-03-25T11:40:51.196Z,92.70
2019-03-25T11:43:19.355Z,92.70
2019-03-25T11:45:47.586Z,92.80
2019-03-25T11:48:15.688Z,91.80
2019-03-25T11:50:43.792Z,90.80
2019-03-25T11:53:11.926Z,90.10
2019-03-25T11:55:39.538Z,90.30
2019-03-25T11:58:07.669Z,88.50
2019-03-25T12:00:35.706Z,89.30
2019-03-25T12:03:04.027Z,86.60
2019-03-25T12:05:32.180Z,88.00
2019-03-25T12:08:01.451Z,88.20
2019-03-25T12:10:29.582Z,86.80
2019-03-25T12:12:57.833Z,86.80
2019-03-25T12:15:26.000Z,86.40
2019-03-25T12:17:54.011Z,85.10
2019-03-25T12:20:22.170Z,82.90
2019-03-25T12:22:50.318Z,84.10
2019-03-25T12:27:46.095Z,80.60
2019-03-25T12:30:14.363Z,78.70
2019-03-25T12:32:42.519Z,78.40
2019-03-25T12:35:10.809Z,76.20
2019-03-25T12:37:38.976Z,75.70
2019-03-25T12:40:07.966Z,76.10
2019-03-25T12:42:36.384Z,74.60
2019-03-25T12:45:04.595Z,74.30
2019-03-25T12:47:32.751Z,73.50
2019-03-25T12:50:00.891Z,76.40
2019-03-25T12:52:29.034Z,75.50
2019-03-25T12:54:57.161Z,74.90
2019-03-25T12:57:25.331Z,74.80
2019-03-25T12:59:53.431Z,73.80
2019-03-25T13:02:21.501Z,73.20
2019-03-25T13:04:49.557Z,70.00
2019-03-25T13:07:17.709Z,67.90
2019-03-25T13:09:45.751Z,68.50
2019-03-25T13:12:14.141Z,69.80
2019-03-25T13:14:42.283Z,69.10
2019-03-25T13:17:10.433Z,68.20
2019-03-25T13:19:38.572Z,68.20
2019-03-25T13:22:06.583Z,69.00
2019-03-25T13:24:34.725Z,67.80
2019-03-25T13:27:02.871Z,67.30
2019-03-25T13:29:31.098Z,67.20
2019-03-25T13:31:59.313Z,66.00
2019-03-25T13:34:27.465Z,65.60
2019-03-25T13:36:55.611Z,65.90
2019-03-25T13:39:23.796Z,65.10
2019-03-25T13:41:51.938Z,63.00
2019-03-25T13:44:20.041Z,63.40
2019-03-25T13:46:48.131Z,61.90
2019-03-25T13:49:16.271Z,61.50
2019-03-25T13:51:44.419Z,62.00
2019-03-25T13:54:12.524Z,62.20
2019-03-25T13:56:40.753Z,62.20
2019-03-25T13:59:08.862Z,61.50
2019-03-25T14:01:37.005Z,60.20
2019-03-25T14:04:05.149Z,60.50
2019-03-25T14:06:33.248Z,59.00
2019-03-25T14:09:01.427Z,58.90
2019-03-25T14:11:29.995Z,58.70
2019-03-25T14:14:00.181Z,58.50
2019-03-25T14:16:28.170Z,57.90
2019-03-25T14:18:56.390Z,58.00
2019-03-25T14:21:24.544Z,60.00
2019-03-25T14:23:52.678Z,62.80
2019-03-25T14:26:20.833Z,64.70
2019-03-25T14:28:48.903Z,65.50
2019-03-25T14:31:17.059Z,66.50
2019-03-25T14:33:45.207Z,66.10
2019-03-25T14:36:13.255Z,68.10
2019-03-25T14:38:41.450Z,70.60
2019-03-25T14:41:10.729Z,72.50
2019-03-25T14:43:38.919Z,73.50
2019-03-25T14:46:06.996Z,75.40
2019-03-25T14:48:36.300Z,78.20
2019-03-25T14:51:04.350Z,77.70
2019-03-25T14:53:32.531Z,77.80
2019-03-25T14:56:00.720Z,77.40
2019-03-25T14:58:28.882Z,76.50
2019-03-25T15:00:57.067Z,75.20
2019-03-25T15:03:25.245Z,72.40
2019-03-25T15:05:53.413Z,71.60
2019-03-25T15:08:21.520Z,70.90
2019-03-25T15:10:53.784Z,70.50
2019-03-25T15:13:19.635Z,68.90
2019-03-25T15:15:47.782Z,67.10
2019-03-25T15:18:16.233Z,65.10
2019-03-25T15:20:44.511Z,64.40
2019-03-25T15:23:12.679Z,63.30
2019-03-25T15:25:40.806Z,64.10
2019-03-25T15:28:09.030Z,64.40
2019-03-25T15:30:37.160Z,64.10
2019-03-25T15:33:05.352Z,65.90
2019-03-25T15:35:33.470Z,68.10
2019-03-25T15:38:01.828Z,67.20
2019-03-25T15:40:30.142Z,70.10
2019-03-25T15:42:58.292Z,75.40
2019-03-25T15:45:45.677Z,75.30
2019-03-25T15:48:13.643Z,76.70
2019-03-25T15:50:41.801Z,76.30
2019-03-25T15:53:09.926Z,74.40
2019-03-25T15:55:38.106Z,75.30
2019-03-25T15:58:06.464Z,73.60
2019-03-25T16:00:34.920Z,74.30
2019-03-25T16:03:03.844Z,75.70
2019-03-25T16:05:31.989Z,75.00
2019-03-25T16:08:00.077Z,75.90
2019-03-25T16:10:28.240Z,76.30
2019-03-25T16:12:56.510Z,77.00
2019-03-25T16:15:41.638Z,77.60
2019-03-25T16:18:12.104Z,76.60
2019-03-25T16:20:40.297Z,76.10
2019-03-25T16:23:08.502Z,76.80
2019-03-25T16:25:36.610Z,76.80
2019-03-25T16:28:04.759Z,77.90
2019-03-25T16:30:32.950Z,77.00
2019-03-25T16:33:01.036Z,77.50
2019-03-25T16:35:29.327Z,76.60
2019-03-25T16:37:57.421Z,77.50
2019-03-25T16:40:25.624Z,76.90
2019-03-25T16:42:53.849Z,75.60
2019-03-25T16:45:42.950Z,75.70
2019-03-25T16:48:12.067Z,75.20
2019-03-25T16:50:40.221Z,75.20
2019-03-25T16:53:10.961Z,75.20
2019-03-25T16:55:39.117Z,74.70
2019-03-25T16:58:07.192Z,75.90
2019-03-25T17:00:35.587Z,75.80
2019-03-25T17:03:03.790Z,76.70
2019-03-25T17:05:32.991Z,76.40
2019-03-25T17:08:02.472Z,76.40
2019-03-25T17:10:42.822Z,76.80
2019-03-25T17:13:10.925Z,76.00
2019-03-25T17:15:39.063Z,75.30
2019-03-25T17:18:07.225Z,74.50
2019-03-25T17:20:35.371Z,75.00
2019-03-25T17:23:03.659Z,74.20
2019-03-25T17:25:31.897Z,75.50
2019-03-25T17:28:00.099Z,76.30
2019-03-25T17:30:28.355Z,76.80
2019-03-25T17:32:56.533Z,77.50
2019-03-25T17:35:24.675Z,79.40
2019-03-25T17:37:52.847Z,78.60
2019-03-25T17:40:21.054Z,78.00
2019-03-25T17:42:49.311Z,77.10
2019-03-25T17:45:19.372Z,75.80
2019-03-25T17:47:47.532Z,75.60
2019-03-25T17:50:34.822Z,75.60
2019-03-25T17:53:03.068Z,75.20
2019-03-25T17:55:31.254Z,74.90
2019-03-25T17:57:59.507Z,75.10
2019-03-25T18:01:16.094Z,74.70
2019-03-25T18:03:44.196Z,74.50
2019-03-25T18:06:12.959Z,75.60
2019-03-25T18:08:41.479Z,76.00
2019-03-25T18:11:09.773Z,76.20
2019-03-25T18:13:37.965Z,76.40
2019-03-25T18:16:06.118Z,75.90
2019-03-25T18:18:34.249Z,75.90
2019-03-25T18:21:02.348Z,75.30
2019-03-25T18:23:30.608Z,75.30
2019-03-25T18:25:58.873Z,74.70
2019-03-25T18:28:27.036Z,76.60
2019-03-25T18:30:55.214Z,75.90
2019-03-25T18:33:23.384Z,75.80
2019-03-25T18:35:51.554Z,75.90
2019-03-25T18:38:19.844Z,76.50
2019-03-25T18:40:48.430Z,76.80
2019-03-25T18:43:16.905Z,76.00
2019-03-25T18:45:45.962Z,76.60
2019-03-25T18:48:15.009Z,76.00
2019-03-25T18:50:46.325Z,75.20
2019-03-25T18:53:17.661Z,75.00
2019-03-25T18:55:45.946Z,75.50
2019-03-25T18:58:14.515Z,75.40
2019-03-25T19:00:46.535Z,75.70
2019-03-25T19:03:15.541Z,76.20
2019-03-25T19:05:47.169Z,76.60
2019-03-25T19:08:15.517Z,77.30
2019-03-25T19:10:45.372Z,77.60
2019-03-25T19:13:13.649Z,77.30
2019-03-25T19:15:42.017Z,76.70
2019-03-25T19:18:10.191Z,76.70
2019-03-25T19:20:38.374Z,76.30
2019-03-25T19:23:06.976Z,76.60
2019-03-25T19:25:36.393Z,76.80
2019-03-25T19:28:04.518Z,76.50
2019-03-25T19:30:34.750Z,75.10
2019-03-25T19:33:02.967Z,75.70
2019-03-25T19:35:31.431Z,75.00
2019-03-25T19:38:00.171Z,75.00
2019-03-25T19:40:28.952Z,74.50
2019-03-25T19:42:57.447Z,74.20
2019-03-25T19:45:25.689Z,73.70
2019-03-25T19:47:55.065Z,73.30
2019-03-25T19:50:23.339Z,73.50
2019-03-25T19:52:51.514Z,73.40
2019-03-25T19:55:19.765Z,73.20
2019-03-25T19:57:48.269Z,72.90
2019-03-25T20:00:21.051Z,73.30
2019-03-25T20:02:49.421Z,73.40
2019-03-25T20:05:17.725Z,73.00
2019-03-25T20:07:46.071Z,72.60
2019-03-25T20:10:27.796Z,72.70
2019-03-25T20:12:56.759Z,73.20
2019-03-25T20:15:25.125Z,73.40
2019-03-25T20:17:53.263Z,73.00
2019-03-25T20:20:23.918Z,73.10
2019-03-25T20:23:04.451Z,73.30
2019-03-25T20:25:32.730Z,73.10
2019-03-25T20:28:00.858Z,72.80
2019-03-25T20:30:29.094Z,72.90
2019-03-25T20:32:57.400Z,73.60
2019-03-25T20:35:25.534Z,75.10
2019-03-25T20:37:53.743Z,74.90
2019-03-25T20:40:21.902Z,75.90
2019-03-25T20:42:50.154Z,77.50
2019-03-25T20:45:18.666Z,78.10
2019-03-25T20:47:46.788Z,78.20
2019-03-25T20:50:17.955Z,78.50
2019-03-25T20:52:46.080Z,77.00
2019-03-25T20:55:16.301Z,76.10
2019-03-25T20:57:44.478Z,76.00
2019-03-25T21:00:13.276Z,76.50
2019-03-25T21:02:45.229Z,76.70
2019-03-25T21:05:12.939Z,76.70
2019-03-25T21:07:41.334Z,77.20
2019-03-25T21:10:09.782Z,76.20
2019-03-25T21:12:40.058Z,75.90
2019-03-25T21:15:08.198Z,76.10
2019-03-25T21:17:36.464Z,75.90
2019-03-25T21:20:06.019Z,75.80
2019-03-25T21:22:34.100Z,76.30
2019-03-25T21:25:02.290Z,76.50
2019-03-25T21:27:30.454Z,76.60
2019-03-25T21:29:58.684Z,77.40
2019-03-25T21:32:31.239Z,77.20
2019-03-25T21:34:59.376Z,77.10
2019-03-25T21:37:27.676Z,78.00
2019-03-25T21:39:55.805Z,78.30
2019-03-25T21:42:24.035Z,77.70
2019-03-25T21:44:53.980Z,78.40
2019-03-25T21:47:22.150Z,78.40
2019-03-25T21:49:50.390Z,78.60
2019-03-25T21:52:18.463Z,79.10
2019-03-25T21:54:46.701Z,79.60
2019-03-25T21:57:14.942Z,79.70
2019-03-25T21:59:42.972Z,80.50
2019-03-25T22:02:11.046Z,80.40
2019-03-25T22:04:39.224Z,80.00
2019-03-25T22:07:07.478Z,79.50
2019-03-25T22:09:35.667Z,78.80
2019-03-25T22:12:03.710Z,78.30
2019-03-25T22:14:31.947Z,78.30
2019-03-25T22:17:00.071Z,78.40
2019-03-25T22:19:28.283Z,78.20
2019-03-25T22:21:56.447Z,76.70
2019-03-25T22:24:24.480Z,76.50
2019-03-25T22:26:52.699Z,76.40
2019-03-25T22:29:20.900Z,76.30
2019-03-25T22:31:49.143Z,76.20
2019-03-25T22:34:17.354Z,76.50
2019-03-25T22:36:46.349Z,76.50
2019-03-25T22:39:14.501Z,76.70
2019-03-25T22:41:42.625Z,76.90
2019-03-25T22:44:10.789Z,76.60
2019-03-25T22:46:38.942Z,77.10
2019-03-25T22:49:07.054Z,77.00
2019-03-25T22:51:35.215Z,76.90
2019-03-25T22:54:03.389Z,76.60
2019-03-25T22:56:31.568Z,77.20
2019-03-25T22:58:59.682Z,76.90
2019-03-25T23:01:27.931Z,76.80
2019-03-25T23:03:55.929Z,76.80
2019-03-25T23:06:24.065Z,77.60
2019-03-25T23:08:52.271Z,77.40
2019-03-25T23:11:20.349Z,77.30
2019-03-25T23:13:48.511Z,78.70
2019-03-25T23:16:16.609Z,78.90
2019-03-25T23:18:44.767Z,79.50
2019-03-25T23:21:12.969Z,80.00
2019-03-25T23:23:41.062Z,80.10
2019-03-25T23:26:09.071Z,80.50
2019-03-25T23:28:37.153Z,81.00
2019-03-25T23:31:05.191Z,81.40
2019-03-25T23:33:33.291Z,81.50
2019-03-25T23:36:01.460Z,80.80
2019-03-25T23:38:29.513Z,80.50
2019-03-25T23:40:57.581Z,79.70
2019-03-25T23:43:25.631Z,78.90
2019-03-25T23:45:53.675Z,79.20
2019-03-25T23:48:21.810Z,79.80
2019-03-25T23:50:49.847Z,79.50
2019-03-25T23:53:18.011Z,80.10
2019-03-25T23:55:46.044Z,78.70
2019-03-25T23:58:14.213Z,78.70
